^^
Your Local Weather - Clay, NY Station Historical Data
Daily Summary for January 23, 2018 Units:  Metric    English   Both
« Previous Day
Next Day »
Daily Weekly Monthly Yearly Custom
  High: Low: Average:
Temperature: 11.4 °C 0.2 °C 4.5 °C
Dew Point: 8.2 °C -1.6 °C 2.3 °C
Humidity: 94% 72% 86%
Wind Speed: 14.5km/h 0km/h 4.5km/h
Wind Gust: 33.8km/h - -
Wind- - South
Pressure: 1007.3 hPa 996.5 hPa -
Precipitation: 3.05 mm    
Historical Graphs
 
 
Tabular Data for January 23, 2018
Time Temperature Dew Point Pressure Wind Wind Speed Wind Gust Humidity Rainfall Rate (Hourly) solar
00:02 2.8 °C 1.8 °C 1007.3 hPa ENE 3.2 km/h 4.8 km/h 93% 0 mm 0 W/m2
00:08 2.9 °C 1.7 °C 1007.3 hPa ENE 3.2 km/h 4.8 km/h 92% 0 mm 0 W/m2
00:14 3.3 °C 2.3 °C 1007 hPa NNE 3.2 km/h 4.8 km/h 93% 0 mm 0 W/m2
00:20 2.7 °C 1.5 °C 1007 hPa NNE 3.2 km/h 3.2 km/h 92% 0 mm 0 W/m2
00:32 2.6 °C 1.4 °C 1006.7 hPa ENE 3.2 km/h 4.8 km/h 92% 0 mm 0 W/m2
00:44 2.7 °C 1.6 °C 1006.7 hPa NE 3.2 km/h 6.4 km/h 92% 0 mm 0 W/m2
00:50 2.7 °C 1.5 °C 1006.3 hPa NE 1.6 km/h 3.2 km/h 92% 0 mm 0 W/m2
01:04 3.1 °C 2.1 °C 1006.3 hPa NE 1.6 km/h 3.2 km/h 93% 0 mm 0 W/m2
01:10 2.8 °C 1.8 °C 1006.3 hPa NE 3.2 km/h 3.2 km/h 93% 0 mm 0 W/m2
01:16 3.3 °C 2.3 °C 1006 hPa NE 1.6 km/h 6.4 km/h 93% 0 mm 0 W/m2
01:22 3.4 °C 2.4 °C 1006.3 hPa NE 1.6 km/h 1.6 km/h 93% 0 mm 0 W/m2
01:28 3.3 °C 2.3 °C 1006.3 hPa Calm   1.6 km/h 93% 0 mm 0 W/m2
01:34 3.3 °C 2.3 °C 1006.3 hPa North 1.6 km/h 3.2 km/h 93% 0 mm 0 W/m2
01:46 3.4 °C 2.4 °C 1006 hPa ENE 1.6 km/h 4.8 km/h 93% 0 mm 0 W/m2
01:52 3.6 °C 2.6 °C 1006 hPa SE 1.6 km/h 3.2 km/h 93% 0 mm 0 W/m2
01:58 3.8 °C 2.7 °C 1006 hPa SE 1.6 km/h 3.2 km/h 93% 0 mm 0 W/m2
02:04 3.9 °C 2.8 °C 1006 hPa SE 1.6 km/h 8 km/h 93% 0 mm 0 W/m2
02:10 4.6 °C 3.6 °C 1005.6 hPa South 4.8 km/h 4.8 km/h 93% 0 mm 0 W/m2
02:22 4.9 °C 3.7 °C 1005.6 hPa ESE 1.6 km/h 3.2 km/h 92% 0 mm 0 W/m2
02:28 5.1 °C 3.8 °C 1005.6 hPa SE 1.6 km/h 8 km/h 91% 0 mm 0 W/m2
02:40 7.4 °C 5.6 °C 1005.3 hPa South 8 km/h 9.7 km/h 88% 0 mm 0 W/m2
02:46 7.3 °C 5.1 °C 1005.3 hPa SSE 6.4 km/h 9.7 km/h 86% 0 mm 0 W/m2
02:52 8.1 °C 5.5 °C 1005.3 hPa SE 9.7 km/h 12.9 km/h 84% 0 mm 0 W/m2
02:58 7.9 °C 5.2 °C 1005.3 hPa SE 8 km/h 12.9 km/h 83% 0 mm 0 W/m2
03:04 7.9 °C 5.2 °C 1005 hPa ESE 4.8 km/h 8 km/h 83% 0 mm 0 W/m2
03:10 7.4 °C 4.8 °C 1005 hPa SE 4.8 km/h 4.8 km/h 84% 0 mm 0 W/m2
03:16 5.9 °C 3.3 °C 1004.6 hPa East 3.2 km/h 4.8 km/h 83% 0 mm 0 W/m2
03:22 5 °C 2.7 °C 1004.3 hPa East 3.2 km/h 4.8 km/h 85% 0 mm 0 W/m2
03:28 4.4 °C 2.3 °C 1003.9 hPa East 3.2 km/h 4.8 km/h 86% 0 mm 0 W/m2
03:34 4.4 °C 2.6 °C 1004.3 hPa South 1.6 km/h 4.8 km/h 88% 0 mm 0 W/m2
03:40 4.4 °C 2.7 °C 1004.3 hPa NE 3.2 km/h 3.2 km/h 89% 0 mm 0 W/m2
03:52 3.9 °C 2.2 °C 1004.3 hPa ENE 1.6 km/h 6.4 km/h 89% 0 mm 0 W/m2
03:58 3.9 °C 2.4 °C 1004.3 hPa ENE 3.2 km/h 6.4 km/h 90% 0 mm 0 W/m2
04:04 4.1 °C 2.6 °C 1003.9 hPa ENE 1.6 km/h 4.8 km/h 90% 0 mm 0 W/m2
04:10 4.1 °C 2.7 °C 1003.9 hPa ENE 1.6 km/h 1.6 km/h 91% 0 mm 0 W/m2
04:16 4.4 °C 3.1 °C 1003.6 hPa ENE 1.6 km/h 3.2 km/h 91% 0 mm 0 W/m2
04:22 4.2 °C 2.9 °C 1003.3 hPa ENE 3.2 km/h 6.4 km/h 91% 0 mm 0 W/m2
04:28 4.7 °C 3.5 °C 1003.3 hPa NE 3.2 km/h 6.4 km/h 92% 0 mm 0 W/m2
04:34 4.8 °C 3.7 °C 1002.9 hPa NE 1.6 km/h 4.8 km/h 92% 0 mm 0 W/m2
04:46 5.1 °C 3.9 °C 1002.3 hPa SE 4.8 km/h 6.4 km/h 92% 0 mm 0 W/m2
04:58 5.7 °C 4.5 °C 1001.9 hPa SE 4.8 km/h 8 km/h 92% 0 mm 0 W/m2
05:04 6.1 °C 4.7 °C 1001.6 hPa East 6.4 km/h 8 km/h 91% 0 mm 0 W/m2
05:10 5.8 °C 4.3 °C 1001.6 hPa SE 4.8 km/h 4.8 km/h 90% 0 mm 0 W/m2
05:16 5.6 °C 3.9 °C 1001.2 hPa East 3.2 km/h 4.8 km/h 89% 0 mm 0 W/m2
05:22 5.4 °C 3.8 °C 1001.2 hPa ENE 3.2 km/h 9.7 km/h 89% 0 mm 0 W/m2
05:28 4.7 °C 3.1 °C 1001.6 hPa ENE 4.8 km/h 9.7 km/h 89% 0 mm 0 W/m2
05:34 4.2 °C 2.5 °C 1001.6 hPa ENE 6.4 km/h 11.3 km/h 89% 0 mm 0 W/m2
05:40 3.8 °C 2.2 °C 1001.6 hPa ENE 3.2 km/h 3.2 km/h 89% 0 mm 0 W/m2
05:46 3.7 °C 2.2 °C 1001.6 hPa East 3.2 km/h 8 km/h 90% 0 mm 0 W/m2
05:52 3.3 °C 1.8 °C 1001.9 hPa East 3.2 km/h 4.8 km/h 90% 0 mm 0 W/m2
05:58 3.2 °C 1.7 °C 1001.6 hPa ENE 3.2 km/h 6.4 km/h 90% 0 mm 0 W/m2
06:04 3.1 °C 1.6 °C 1001.6 hPa ENE 3.2 km/h 3.2 km/h 90% 0 mm 0 W/m2
06:10 3.4 °C 2.1 °C 1001.2 hPa ESE 1.6 km/h 1.6 km/h 91% 0 mm 0 W/m2
06:16 3.7 °C 2.4 °C 1001.2 hPa ESE 1.6 km/h 1.6 km/h 91% 0 mm 0 W/m2
06:22 4.2 °C 2.8 °C 1001.6 hPa East 1.6 km/h 3.2 km/h 91% 0 mm 0 W/m2
06:28 4.4 °C 3.3 °C 1001.6 hPa ENE 1.6 km/h 4.8 km/h 92% 0 mm 0 W/m2
06:34 4.9 °C 3.8 °C 1002.3 hPa NE 1.6 km/h 4.8 km/h 92% 0 mm 0 W/m2
06:40 5.3 °C 4.1 °C 1002.3 hPa ENE 1.6 km/h 1.6 km/h 92% 0 mm 0 W/m2
06:46 5.4 °C 4.1 °C 1002.3 hPa SE 1.6 km/h 1.6 km/h 91% 0 mm 0 W/m2
06:52 5.2 °C 3.9 °C 1002.3 hPa West 1.6 km/h 3.2 km/h 91% 0 mm 0 W/m2
06:58 5.4 °C 4.1 °C 1002.6 hPa West 1.6 km/h 3.2 km/h 91% 0 mm 0 W/m2
07:04 5.2 °C 3.7 °C 1002.6 hPa NW 1.6 km/h 9.7 km/h 90% 0 mm 0 W/m2
07:10 4.4 °C 2.7 °C 1002.6 hPa NNW 3.2 km/h 3.2 km/h 89% 0 mm 0 W/m2
07:16 4 °C 2.3 °C 1002.6 hPa NNW 3.2 km/h 3.2 km/h 89% 0 mm 0 W/m2
07:22 3.7 °C 2.1 °C 1002.6 hPa NNW 3.2 km/h 3.2 km/h 89% 0 mm 0 W/m2
07:28 3.6 °C 2.1 °C 1002.6 hPa NNW 1.6 km/h 3.2 km/h 90% 0 mm 0 W/m2
07:34 3.4 °C 1.9 °C 1002.6 hPa Calm   1.6 km/h 90% 0 mm 0 W/m2
07:40 3.4 °C 1.9 °C 1002.6 hPa Calm     90% 0 mm 0 W/m2
07:46 3.1 °C 1.6 °C 1002.3 hPa Calm   1.6 km/h 90% 0 mm 0 W/m2
07:52 2.8 °C 1.5 °C 1001.9 hPa Calm   1.6 km/h 91% 0 mm 0 W/m2
07:58 2.8 °C 1.5 °C 1001.9 hPa Calm   3.2 km/h 91% 0 mm 5 W/m2
08:04 3 °C 1.7 °C 1001.9 hPa NNW 1.6 km/h 3.2 km/h 91% 0 mm 5 W/m2
08:16 3.1 °C 1.9 °C 1001.9 hPa NNW 1.6 km/h 1.6 km/h 92% 0 mm 5 W/m2
08:28 3.1 °C 1.9 °C 1000.9 hPa NNW 1.6 km/h 3.2 km/h 92% 0 mm 19 W/m2
08:34 3 °C 1.8 °C 1000.6 hPa NNW 1.6 km/h 1.6 km/h 92% 0 mm 16 W/m2
08:40 2.9 °C 1.8 °C 1000.6 hPa Calm   1.6 km/h 92% 0 mm 12 W/m2
08:46 3 °C 1.8 °C 1000.9 hPa Calm   1.6 km/h 92% 0 mm 11 W/m2
08:52 3.1 °C 1.9 °C 1000.6 hPa Calm   1.6 km/h 92% 0 mm 5 W/m2
08:58 3.4 °C 2.2 °C 1000.6 hPa ESE 1.6 km/h 3.2 km/h 92% 0 mm 21 W/m2
09:04 3.8 °C 2.7 °C 1000.2 hPa ESE 1.6 km/h 4.8 km/h 93% 0 mm 28 W/m2
09:10 4.1 °C 3.1 °C 999.5 hPa East 3.2 km/h 8 km/h 93% 0 mm 26 W/m2
09:16 4.3 °C 3.3 °C 999.9 hPa East 6.4 km/h 9.7 km/h 93% 0 mm 25 W/m2
09:22 4.4 °C 3.3 °C 999.5 hPa ENE 4.8 km/h 4.8 km/h 93% 0 mm 23 W/m2
09:28 4.4 °C 3.4 °C 998.9 hPa NE 3.2 km/h 4.8 km/h 93% 0 mm 39 W/m2
09:34 4.6 °C 3.5 °C 999.5 hPa ENE 3.2 km/h 4.8 km/h 93% 0 mm 46 W/m2
09:46 4.4 °C 3.3 °C 999.5 hPa ENE 1.6 km/h 3.2 km/h 92% 0 mm 65 W/m2
09:52 4.6 °C 3.4 °C 999.9 hPa ENE 1.6 km/h 4.8 km/h 92% 0 mm 67 W/m2
09:58 4.8 °C 3.7 °C 999.5 hPa ENE 1.6 km/h 6.4 km/h 92% 0 mm 121 W/m2
10:04 4.9 °C 3.8 °C 999.9 hPa ENE 1.6 km/h 1.6 km/h 92% 0 mm 105 W/m2
10:10 4.9 °C 3.8 °C 999.9 hPa Calm   3.2 km/h 92% 0 mm 102 W/m2
10:16 5 °C 3.8 °C 999.9 hPa Calm   3.2 km/h 92% 0 mm 120 W/m2
10:18 5.1 °C 3.9 °C 999.9 hPa Calm   3.2 km/h 92% 0 mm 111 W/m2
10:24 5.2 °C 4 °C 1000.6 hPa Calm   1.6 km/h 92% 0 mm 65 W/m2
10:48 4.2 °C 2.8 °C 999.2 hPa ENE 3.2 km/h 4.8 km/h 91% 0 mm 44 W/m2
10:54 4.2 °C 3 °C 999.5 hPa East 3.2 km/h 3.2 km/h 92% 0 mm 58 W/m2
11:06 3.9 °C 2.7 °C 999.9 hPa Calm   1.6 km/h 92% 0 mm 18 W/m2
11:12 4.1 °C 2.9 °C 999.9 hPa Calm   1.6 km/h 92% 0 mm 16 W/m2
11:18 4.2 °C 3.1 °C 999.9 hPa Calm   1.6 km/h 92% 0 mm 26 W/m2
11:24 4.3 °C 3.2 °C 999.5 hPa Calm   3.2 km/h 92% 0 mm 44 W/m2
11:30 3.7 °C 2.6 °C 998.9 hPa East 1.6 km/h 3.2 km/h 92% 0 mm 47 W/m2
11:36 3.9 °C 2.7 °C 998.9 hPa East 3.2 km/h 3.2 km/h 92% 0 mm 72 W/m2
11:42 4.1 °C 3.1 °C 998.9 hPa ENE 1.6 km/h 1.6 km/h 93% 0 mm 37 W/m2
11:54 4.4 °C 3.3 °C 998.9 hPa Calm   1.6 km/h 93% 0 mm 26 W/m2
12:00 3.9 °C 2.9 °C 998.5 hPa East 1.6 km/h 1.6 km/h 93% 0 mm 23 W/m2
12:08 4.2 °C 3.1 °C 998.5 hPa Calm   1.6 km/h 93% 0 mm 37 W/m2
12:14 4.2 °C 3.2 °C 998.2 hPa Calm     93% 0 mm 47 W/m2
12:20 4.2 °C 3.2 °C 997.9 hPa Calm     93% 0 mm 105 W/m2
12:26 4.4 °C 3.4 °C 997.9 hPa Calm   1.6 km/h 93% 0 mm 301 W/m2
12:32 4.9 °C 3.9 °C 997.9 hPa Calm     93% 0 mm 202 W/m2
12:44 6.6 °C 5.7 °C 997.9 hPa Calm   1.6 km/h 94% 0 mm 445 W/m2
12:50 7.4 °C 6.6 °C 997.5 hPa Calm     94% 0 mm 420 W/m2
12:56 8.1 °C 7 °C 997.5 hPa Calm     93% 0 mm 461 W/m2
13:02 9.4 °C 8.2 °C 997.2 hPa South 1.6 km/h 6.4 km/h 92% 0 mm 508 W/m2
13:08 10.3 °C 7.9 °C 997.2 hPa SSW 4.8 km/h 8 km/h 85% 0 mm 568 W/m2
13:14 10.4 °C 7.3 °C 996.8 hPa SSW 4.8 km/h 9.7 km/h 81% 0 mm 135 W/m2
13:20 10.3 °C 6.8 °C 996.8 hPa SSW 4.8 km/h 4.8 km/h 79% 0 mm 130 W/m2
13:26 10.2 °C 6.7 °C 996.8 hPa SSW 6.4 km/h 6.4 km/h 79% 0 mm 248 W/m2
13:32 10.8 °C 6.9 °C 996.8 hPa SSW 6.4 km/h 9.7 km/h 77% 0 mm 452 W/m2
13:38 11.2 °C 6.9 °C 996.8 hPa South 8 km/h 9.7 km/h 75% 0 mm 448 W/m2
13:44 11.4 °C 6.7 °C 996.5 hPa South 8 km/h 9.7 km/h 73% 0 mm 480 W/m2
13:56 11.3 °C 6.4 °C 996.5 hPa SW 8 km/h 12.9 km/h 72% 0 mm 149 W/m2
14:02 11.1 °C 6.2 °C 996.5 hPa South 6.4 km/h 11.3 km/h 72% 0 mm 109 W/m2
14:08 10.9 °C 6.1 °C 996.8 hPa SW 8 km/h 11.3 km/h 72% 0 mm 51 W/m2
14:14 9.6 °C 5 °C 996.8 hPa West 9.7 km/h 17.7 km/h 73% 0 mm 42 W/m2
14:26 8.6 °C 5.1 °C 996.8 hPa SSW 9.7 km/h 11.3 km/h 79% 0 mm 417 W/m2
14:32 9 °C 5.2 °C 996.8 hPa WSW 8 km/h 20.9 km/h 77% 0 mm 98 W/m2
14:38 8.6 °C 4.2 °C 998.2 hPa West 11.3 km/h 33.8 km/h 74% 0 mm 11 W/m2
14:44 6.1 °C 2.5 °C 998.9 hPa West 14.5 km/h 17.7 km/h 78% 0 mm 33 W/m2
14:50 5.1 °C 2.4 °C 998.9 hPa NW 11.3 km/h 11.3 km/h 83% 0 mm 32 W/m2
15:02 4.8 °C 2.8 °C 999.5 hPa WNW 8 km/h 8 km/h 87% 0 mm 21 W/m2
15:08 4.7 °C 2.7 °C 999.5 hPa West 6.4 km/h 12.9 km/h 87% 0 mm 30 W/m2
15:14 4.7 °C 2.7 °C 999.5 hPa WSW 6.4 km/h 8 km/h 87% 0 mm 21 W/m2
15:20 4.7 °C 2.7 °C 999.9 hPa WSW 6.4 km/h 6.4 km/h 87% 0 mm 18 W/m2
15:26 4.7 °C 2.7 °C 999.9 hPa West 6.4 km/h 11.3 km/h 87% 0 mm 14 W/m2
15:32 4.6 °C 2.6 °C 999.9 hPa WSW 6.4 km/h 6.4 km/h 87% 0 mm 14 W/m2
15:38 4.6 °C 2.4 °C 999.9 hPa WSW 4.8 km/h 6.4 km/h 86% 0 mm 21 W/m2
15:44 4.5 °C 2.3 °C 999.9 hPa WSW 4.8 km/h 6.4 km/h 86% 0 mm 23 W/m2
15:50 4.4 °C 2.2 °C 999.5 hPa WSW 4.8 km/h 8 km/h 85% 0 mm 30 W/m2
15:56 4.4 °C 2.2 °C 999.9 hPa West 4.8 km/h 8 km/h 85% 0 mm 77 W/m2
16:02 4.6 °C 2.3 °C 999.9 hPa West 4.8 km/h 9.7 km/h 85% 0 mm 91 W/m2
16:08 4.6 °C 2.1 °C 999.9 hPa SSW 4.8 km/h 9.7 km/h 84% 0 mm 65 W/m2
16:14 4.5 °C 1.9 °C 1000.2 hPa WSW 4.8 km/h 8 km/h 83% 0 mm 35 W/m2
16:20 4.4 °C 1.8 °C 999.9 hPa WSW 4.8 km/h 4.8 km/h 83% 0 mm 30 W/m2
16:26 4.4 °C 1.8 °C 1000.2 hPa SW 3.2 km/h 8 km/h 83% 0 mm 26 W/m2
16:32 4.3 °C 1.7 °C 1000.6 hPa WSW 4.8 km/h 4.8 km/h 83% 0 mm 21 W/m2
16:38 4.3 °C 1.7 °C 1000.6 hPa WSW 4.8 km/h 6.4 km/h 83% 0 mm 19 W/m2
16:44 4.3 °C 1.6 °C 1000.6 hPa WSW 4.8 km/h 4.8 km/h 82% 0 mm 12 W/m2
16:50 4.3 °C 1.5 °C 1000.6 hPa WSW 3.2 km/h 6.4 km/h 82% 0 mm 11 W/m2
16:56 4.2 °C 1.4 °C 1000.6 hPa SW 4.8 km/h 6.4 km/h 82% 0 mm 5 W/m2
17:02 4.2 °C 1.4 °C 1000.6 hPa WNW 4.8 km/h 4.8 km/h 82% 0 mm 0 W/m2
17:14 4.2 °C 1.2 °C 1000.9 hPa WNW 4.8 km/h 4.8 km/h 81% 0 mm 0 W/m2
17:20 4.3 °C 1.1 °C 1000.9 hPa WNW 6.4 km/h 8 km/h 80% 0 mm 0 W/m2
17:26 4.3 °C 0.8 °C 1000.9 hPa West 6.4 km/h 12.9 km/h 78% 0 mm 0 W/m2
17:32 4.3 °C 0.6 °C 1001.2 hPa West 6.4 km/h 8 km/h 77% 0 mm 0 W/m2
17:38 4.2 °C 0.6 °C 1001.2 hPa WSW 6.4 km/h 11.3 km/h 77% 0 mm 0 W/m2
17:44 4.2 °C 0.7 °C 1001.2 hPa SSW 4.8 km/h 6.4 km/h 78% 0 mm 0 W/m2
17:50 4.2 °C 0.5 °C 1001.2 hPa SW 4.8 km/h 4.8 km/h 77% 0 mm 0 W/m2
17:56 4.2 °C 0.5 °C 1001.2 hPa SSW 6.4 km/h 12.9 km/h 77% 0 mm 0 W/m2
18:02 4.1 °C 0.4 °C 1001.2 hPa WSW 6.4 km/h 6.4 km/h 77% 0 mm 0 W/m2
18:08 4.1 °C 0.4 °C 1001.2 hPa SSW 4.8 km/h 9.7 km/h 77% 0 mm 0 W/m2
18:14 4.1 °C 0.6 °C 1001.2 hPa SSW 4.8 km/h 9.7 km/h 78% 0 mm 0 W/m2
18:20 4.1 °C 0.6 °C 1001.2 hPa WSW 4.8 km/h 6.4 km/h 78% 0 mm 0 W/m2
18:26 4.1 °C 0.4 °C 1001.6 hPa WSW 4.8 km/h 6.4 km/h 77% 0 mm 0 W/m2
18:32 4.1 °C 0.4 °C 1001.6 hPa West 6.4 km/h 6.4 km/h 77% 0 mm 0 W/m2
18:44 4.1 °C 0.3 °C 1001.6 hPa West 6.4 km/h 14.5 km/h 76% 0 mm 0 W/m2
18:50 4.2 °C 0.2 °C 1001.6 hPa SW 8 km/h 8 km/h 75% 0 mm 0 W/m2
19:02 4.2 °C 0.2 °C 1001.6 hPa West 6.4 km/h 6.4 km/h 75% 0 mm 0 W/m2
19:08 4.2 °C 0.1 °C 1001.6 hPa SW 4.8 km/h 6.4 km/h 75% 0 mm 0 W/m2
19:14 4.2 °C 0.2 °C 1001.6 hPa SW 6.4 km/h 12.9 km/h 75% 0 mm 0 W/m2
19:26 4.2 °C 0.2 °C 1001.6 hPa WSW 6.4 km/h 6.4 km/h 75% 0 mm 0 W/m2
19:32 4.2 °C 0.1 °C 1001.6 hPa WSW 4.8 km/h 6.4 km/h 75% 0 mm 0 W/m2
19:38 4.1 °C 0.1 °C 1001.6 hPa SW 3.2 km/h 6.4 km/h 75% 0 mm 0 W/m2
19:44 4.1 °C 0.1 °C 1001.6 hPa West 4.8 km/h 4.8 km/h 75% 0 mm 0 W/m2
19:50 4.2 °C 0.1 °C 1001.6 hPa WSW 4.8 km/h 8 km/h 75% 0 mm 0 W/m2
19:56 4.2 °C 0 °C 1001.9 hPa SSW 6.4 km/h 11.3 km/h 74% 0 mm 0 W/m2
20:02 4.3 °C 0.1 °C 1001.9 hPa West 8 km/h 8 km/h 74% 0 mm 0 W/m2
20:08 4.3 °C 0.1 °C 1001.9 hPa WSW 6.4 km/h 8 km/h 74% 0 mm 0 W/m2
20:14 4.2 °C 0.1 °C 1001.9 hPa West 6.4 km/h 6.4 km/h 75% 0 mm 0 W/m2
20:20 4.1 °C 0.2 °C 1001.9 hPa West 4.8 km/h 4.8 km/h 76% 0 mm 0 W/m2
20:26 3.9 °C 0.3 °C 1001.9 hPa WSW 6.4 km/h 6.4 km/h 77% 0 mm 0 W/m2
20:32 3.8 °C 0.3 °C 1001.9 hPa West 4.8 km/h 11.3 km/h 78% 0 mm 0 W/m2
20:44 3.5 °C 0.4 °C 1002.3 hPa SW 6.4 km/h 12.9 km/h 80% 0 mm 0 W/m2
20:50 3.4 °C 0.5 °C 1002.3 hPa SW 8 km/h 8 km/h 81% 0 mm 0 W/m2
20:56 3.3 °C 0.4 °C 1001.9 hPa WSW 6.4 km/h 20.9 km/h 81% 0 mm 0 W/m2
21:02 3.4 °C 0.4 °C 1001.9 hPa SW 8 km/h 14.5 km/h 81% 0 mm 0 W/m2
21:08 3.4 °C 0.4 °C 1002.3 hPa SSW 6.4 km/h 14.5 km/h 81% 0 mm 0 W/m2
21:14 3.3 °C 0.5 °C 1002.3 hPa WSW 6.4 km/h 9.7 km/h 82% 0 mm 0 W/m2
21:26 3.2 °C 0.6 °C 1002.3 hPa WSW 8 km/h 9.7 km/h 83% 0 mm 0 W/m2
21:32 3.1 °C 0.4 °C 1002.3 hPa WSW 6.4 km/h 11.3 km/h 83% 0 mm 0 W/m2
21:38 3.2 °C 0.6 °C 1002.3 hPa WSW 8 km/h 11.3 km/h 83% 0 mm 0 W/m2
21:44 3.1 °C 0.3 °C 1002.3 hPa WSW 9.7 km/h 17.7 km/h 82% 0 mm 0 W/m2
21:56 3 °C 0.2 °C 1002.3 hPa WSW 8 km/h 11.3 km/h 82% 0 mm 0 W/m2
22:02 3 °C 0.2 °C 1002.3 hPa WNW 9.7 km/h 20.9 km/h 82% 0 mm 0 W/m2
22:08 3.1 °C 0.1 °C 1002.6 hPa SW 11.3 km/h 20.9 km/h 81% 0 mm 0 W/m2
22:20 3.1 °C -0.2 °C 1002.6 hPa WSW 9.7 km/h 16.1 km/h 79% 0 mm 0 W/m2
22:26 3.1 °C -0.3 °C 1002.6 hPa SW 11.3 km/h 24.1 km/h 78% 0 mm 0 W/m2
22:32 3.1 °C -0.4 °C 1002.6 hPa West 11.3 km/h 14.5 km/h 78% 0 mm 0 W/m2
22:38 3 °C -0.4 °C 1002.6 hPa West 9.7 km/h 14.5 km/h 78% 0 mm 0 W/m2
22:44 2.9 °C -0.5 °C 1002.9 hPa SW 8 km/h 16.1 km/h 78% 0 mm 0 W/m2
22:50 2.9 °C -0.5 °C 1002.9 hPa WNW 9.7 km/h 12.9 km/h 78% 0 mm 0 W/m2
22:56 2.9 °C -0.6 °C 1003.3 hPa West 9.7 km/h 12.9 km/h 78% 0 mm 0 W/m2
23:02 2.8 °C -0.6 °C 1003.3 hPa West 8 km/h 20.9 km/h 78% 0 mm 0 W/m2
23:08 2.8 °C -0.6 °C 1003.3 hPa WSW 9.7 km/h 20.9 km/h 78% 0 mm 0 W/m2
23:14 2.8 °C -0.6 °C 1003.3 hPa WNW 9.7 km/h 12.9 km/h 78% 0 mm 0 W/m2
23:20 2.7 °C -0.7 °C 1003.6 hPa WSW 8 km/h 11.3 km/h 78% 0 mm 0 W/m2
23:26 1.4 °C -1.4 °C 1003.9 hPa NW 11.3 km/h 12.9 km/h 81% 0 mm 0 W/m2
23:32 0.7 °C -1.6 °C 1004.3 hPa West 11.3 km/h 11.3 km/h 85% 0 mm 0 W/m2
23:38 0.4 °C -1.5 °C 1004.3 hPa WNW 9.7 km/h 19.3 km/h 87% 0 mm 0 W/m2
23:44 0.3 °C -1.5 °C 1004.3 hPa West 11.3 km/h 19.3 km/h 88% 0 mm 0 W/m2
23:50 0.2 °C -1.4 °C 1004.6 hPa West 11.3 km/h 11.3 km/h 89% 0 mm 0 W/m2
23:56 0.2 °C -1.4 °C 1004.6 hPa WNW 9.7 km/h 12.9 km/h 89% 0 mm 0 W/m2
Country Meadow, Clay, NY, USA
Compliments of Weather Underground - 2 mb